Time;durP1;ratioP1;P1;durP2;ratioP2;P2;SDS_P1;SDS_P2;PMS_P1;PMS_P2;Temp;Humidity;BMP_temperature;BMP_pressure;BME280_temperature;BME280_humidity;BME280_pressure;Samples;Min_cycle;Max_cycle;Signal;HPM_P1;HPM_P2
2023/09/20 00:02:12;;;;;;;5.53;3.15;;;;;;;16.40;68.39;98089.53;5047242;28;20057;-72
2023/09/20 00:04:37;;;;;;;5.13;2.85;;;;;;;16.31;68.26;98093.91;5030750;28;20051;-71
2023/09/20 00:07:03;;;;;;;3.65;2.50;;;;;;;16.19;68.96;98076.38;5050240;28;20043;-71
2023/09/20 00:09:30;;;;;;;5.57;3.03;;;;;;;16.25;69.00;98088.81;5030969;28;20386;-70
2023/09/20 00:11:56;;;;;;;5.78;2.80;;;;;;;16.19;69.28;98082.63;5049502;28;20061;-71
2023/09/20 00:14:21;;;;;;;5.78;2.83;;;;;;;16.13;69.23;98078.31;5051761;28;20064;-71
2023/09/20 00:16:47;;;;;;;4.78;2.90;;;;;;;15.89;69.89;98071.97;5050753;28;20529;-71
2023/09/20 00:19:12;;;;;;;5.68;2.50;;;;;;;16.01;69.95;98077.84;5052056;28;20021;-69
2023/09/20 00:21:37;;;;;;;4.57;2.60;;;;;;;15.95;69.51;98076.25;5051927;28;20419;-71
2023/09/20 00:24:06;;;;;;;4.40;2.70;;;;;;;15.96;69.81;98072.47;5050168;28;20049;-71
2023/09/20 00:26:34;;;;;;;5.47;2.72;;;;;;;16.07;70.00;98084.88;5051861;28;20457;-71
2023/09/20 00:29:05;;;;;;;3.92;2.80;;;;;;;15.95;69.83;98059.97;5039766;28;20026;-71
2023/09/20 00:31:32;;;;;;;7.80;2.53;;;;;;;16.01;70.12;98064.25;5044238;28;20044;-71
2023/09/20 00:33:57;;;;;;;4.13;2.58;;;;;;;15.93;70.83;98083.88;5013696;28;20045;-71
2023/09/20 00:36:23;;;;;;;5.15;2.40;;;;;;;15.85;71.02;98065.44;5049668;28;20063;-70
2023/09/20 00:38:48;;;;;;;5.55;2.67;;;;;;;15.88;70.74;98075.75;5049606;28;20025;-70
2023/09/20 00:41:15;;;;;;;5.63;2.83;;;;;;;15.98;71.07;98078.41;5033832;28;20037;-72
2023/09/20 00:43:41;;;;;;;6.13;2.80;;;;;;;15.87;70.75;98074.94;5029952;28;20048;-72
2023/09/20 00:46:07;;;;;;;5.28;2.83;;;;;;;15.88;70.95;98070.34;5062875;28;20041;-72
2023/09/20 00:48:33;;;;;;;5.07;2.42;;;;;;;15.88;70.70;98071.16;5010930;28;20021;-72
2023/09/20 00:50:58;;;;;;;5.43;3.00;;;;;;;15.82;70.97;98066.03;5030711;28;20036;-72
2023/09/20 00:53:24;;;;;;;5.05;2.80;;;;;;;15.87;71.27;98074.13;5022874;28;20021;-71
2023/09/20 00:55:49;;;;;;;2.97;2.22;;;;;;;15.88;70.96;98064.91;5046393;28;20171;-72
2023/09/20 00:58:16;;;;;;;3.97;2.40;;;;;;;15.90;71.04;98068.97;5026314;28;20025;-71
2023/09/20 01:00:43;;;;;;;4.50;2.65;;;;;;;15.75;71.20;98060.88;5030173;28;20056;-72
2023/09/20 01:03:15;;;;;;;4.22;2.50;;;;;;;15.65;71.16;98060.16;5042425;28;20033;-71
2023/09/20 01:05:42;;;;;;;4.65;2.67;;;;;;;15.71;71.25;98059.84;5030170;28;20029;-73
2023/09/20 01:08:08;;;;;;;4.10;2.50;;;;;;;15.66;71.58;98059.06;5040078;28;20029;-71
2023/09/20 01:10:36;;;;;;;3.90;2.78;;;;;;;15.64;71.48;98061.22;5030175;28;20118;-71
2023/09/20 01:13:04;;;;;;;4.15;2.50;;;;;;;15.66;71.80;98067.22;5039905;28;20028;-71
2023/09/20 01:15:31;;;;;;;4.07;2.30;;;;;;;15.49;71.83;98039.63;5030263;28;20037;-71
2023/09/20 01:17:58;;;;;;;4.32;2.67;;;;;;;15.51;71.80;98051.00;5041057;28;20112;-71
2023/09/20 01:20:28;;;;;;;3.97;2.45;;;;;;;15.63;71.88;98065.06;5047444;28;20408;-70
2023/09/20 01:22:56;;;;;;;3.40;2.53;;;;;;;15.50;72.41;98062.94;5042199;28;20488;-70
2023/09/20 01:25:24;;;;;;;5.13;2.70;;;;;;;15.57;72.21;98063.44;5034214;28;20029;-71
2023/09/20 01:27:57;;;;;;;5.90;2.80;;;;;;;15.51;71.74;98064.56;5032962;28;20382;-70
2023/09/20 01:30:27;;;;;;;4.95;2.80;;;;;;;15.56;72.18;98072.69;5051452;28;20041;-70
2023/09/20 01:32:57;;;;;;;7.00;2.72;;;;;;;15.60;72.36;98066.41;5036976;28;20493;-71
2023/09/20 01:35:25;;;;;;;4.20;2.90;;;;;;;15.48;72.90;98059.69;5047437;28;20175;-71
2023/09/20 01:37:51;;;;;;;4.10;2.83;;;;;;;15.59;72.38;98072.13;5031108;28;20024;-70
2023/09/20 01:40:18;;;;;;;4.45;2.80;;;;;;;15.55;72.51;98057.47;5047233;28;20029;-70
2023/09/20 01:42:44;;;;;;;5.13;2.83;;;;;;;15.51;72.76;98048.28;5047800;28;20048;-71
2023/09/20 01:45:20;;;;;;;5.82;2.60;;;;;;;15.53;73.05;98060.47;5030801;28;20547;-70
2023/09/20 01:47:50;;;;;;;3.65;2.78;;;;;;;15.57;72.70;98058.00;5030022;28;20082;-72
2023/09/20 01:50:21;;;;;;;6.15;2.83;;;;;;;15.52;72.78;98047.19;5046754;28;20041;-72
2023/09/20 01:52:49;;;;;;;5.82;2.97;;;;;;;15.48;73.37;98048.84;5034430;28;20120;-71
2023/09/20 01:55:17;;;;;;;5.47;3.10;;;;;;;15.50;73.34;98060.22;5050209;28;20564;-71
2023/09/20 01:57:45;;;;;;;3.67;2.75;;;;;;;15.53;72.97;98051.53;5034765;28;20036;-72
2023/09/20 02:00:16;;;;;;;3.10;2.80;;;;;;;15.50;73.35;98052.06;5045784;28;20584;-71
2023/09/20 02:02:43;;;;;;;4.53;3.10;;;;;;;15.49;73.44;98055.91;5033500;28;20083;-72
2023/09/20 02:05:10;;;;;;;3.80;2.92;;;;;;;15.46;73.55;98045.59;5047602;28;20031;-73
2023/09/20 02:07:37;;;;;;;4.78;2.90;;;;;;;15.41;73.32;98037.44;5048871;28;20033;-73
2023/09/20 02:10:06;;;;;;;3.30;2.95;;;;;;;15.40;73.48;98047.50;5048035;28;20032;-73
2023/09/20 02:12:34;;;;;;;5.00;2.80;;;;;;;15.33;74.22;98035.31;5023020;28;20029;-73
2023/09/20 02:15:00;;;;;;;5.35;3.13;;;;;;;15.40;73.90;98060.25;5049502;28;20029;-71
2023/09/20 02:17:26;;;;;;;4.03;2.85;;;;;;;15.33;73.83;98035.31;5036619;28;20025;-72
2023/09/20 02:19:51;;;;;;;5.82;3.20;;;;;;;15.30;74.15;98030.44;5037221;28;20025;-72
2023/09/20 02:22:17;;;;;;;3.72;2.65;;;;;;;15.31;73.70;98026.66;5050618;28;20535;-71
2023/09/20 02:24:43;;;;;;;4.20;2.72;;;;;;;15.15;73.46;98007.72;5066396;28;20021;-71
2023/09/20 02:27:08;;;;;;;3.78;3.17;;;;;;;15.43;73.74;98040.69;5054162;28;20029;-72
2023/09/20 02:29:34;;;;;;;5.15;3.28;;;;;;;15.34;73.83;98036.94;5036202;28;20035;-72
2023/09/20 02:32:00;;;;;;;4.35;3.22;;;;;;;15.46;73.26;98040.16;5033492;28;20491;-73
2023/09/20 02:34:26;;;;;;;5.60;3.00;;;;;;;15.35;73.52;98035.84;5045778;28;20021;-71
2023/09/20 02:36:51;;;;;;;4.20;3.25;;;;;;;15.39;74.01;98039.63;5039422;28;20033;-71
2023/09/20 02:39:18;;;;;;;5.63;3.22;;;;;;;15.27;73.94;98017.41;5046091;28;20087;-72
2023/09/20 02:41:44;;;;;;;5.45;3.20;;;;;;;15.35;74.44;98033.13;5039987;28;20033;-72
2023/09/20 02:44:09;;;;;;;4.40;3.50;;;;;;;15.29;74.24;98018.78;5049350;28;20392;-71
2023/09/20 02:46:35;;;;;;;3.92;3.00;;;;;;;15.30;74.12;98019.59;5054565;28;20037;-73
2023/09/20 02:49:00;;;;;;;4.65;2.95;;;;;;;15.33;74.15;98032.59;5036598;28;20036;-72
2023/09/20 02:51:26;;;;;;;4.60;3.17;;;;;;;15.34;74.46;98034.22;5036821;28;20473;-72
2023/09/20 02:53:52;;;;;;;3.28;2.90;;;;;;;15.37;74.41;98030.94;5043269;28;20037;-71
2023/09/20 02:56:18;;;;;;;4.07;3.10;;;;;;;15.20;74.41;98004.16;5033167;28;20563;-71
2023/09/20 02:58:48;;;;;;;3.80;3.20;;;;;;;15.22;74.08;98012.84;5050412;28;20017;-68
2023/09/20 03:01:17;;;;;;;5.07;3.15;;;;;;;15.33;74.52;98025.28;5032458;28;20043;-69
2023/09/20 03:03:43;;;;;;;4.80;2.67;;;;;;;15.30;74.15;98025.84;5045336;28;20036;-69
2023/09/20 03:06:10;;;;;;;4.32;2.70;;;;;;;15.33;74.30;98032.59;5040468;28;20045;-69
2023/09/20 03:08:35;;;;;;;4.90;3.30;;;;;;;15.29;74.83;98028.81;5033654;28;20025;-70
2023/09/20 03:11:01;;;;;;;4.80;3.03;;;;;;;15.23;75.12;98031.56;5049194;28;20045;-70
2023/09/20 03:13:27;;;;;;;4.18;3.00;;;;;;;15.12;75.16;98018.31;5052421;28;20025;-71
2023/09/20 03:15:54;;;;;;;3.88;3.30;;;;;;;15.21;75.15;98035.66;5052122;28;20068;-71
2023/09/20 03:18:22;;;;;;;5.25;3.10;;;;;;;15.02;74.90;98002.91;5049074;28;20385;-71
2023/09/20 03:20:53;;;;;;;4.13;3.22;;;;;;;15.14;74.99;98033.25;5044216;28;20086;-72
2023/09/20 03:23:19;;;;;;;3.42;2.85;;;;;;;15.07;75.11;98024.59;5051780;28;20037;-72
2023/09/20 03:25:45;;;;;;;4.07;3.00;;;;;;;15.18;75.07;98030.78;5048885;28;20021;-71
2023/09/20 03:28:19;;;;;;;3.92;2.92;;;;;;;15.13;75.04;98025.34;5032142;28;20079;-72
2023/09/20 03:30:45;;;;;;;5.50;3.30;;;;;;;15.05;75.39;98013.19;5052581;28;20438;-71
2023/09/20 03:33:11;;;;;;;4.45;3.03;;;;;;;15.10;75.83;98021.28;5034723;28;20298;-72
2023/09/20 03:35:38;;;;;;;3.88;3.13;;;;;;;15.01;75.56;98001.25;5048284;28;20033;-72
2023/09/20 03:38:04;;;;;;;4.40;3.20;;;;;;;15.11;75.41;98022.94;5015320;28;20018;-74
2023/09/20 03:40:30;;;;;;;3.67;2.92;;;;;;;15.14;75.68;98016.97;5028744;28;20033;-71
2023/09/20 03:43:03;;;;;;;4.32;2.83;;;;;;;15.07;75.52;98027.28;5019075;28;20021;-71
2023/09/20 03:45:29;;;;;;;4.40;2.80;;;;;;;15.08;75.46;98018.06;5059883;28;20025;-72
2023/09/20 03:47:56;;;;;;;3.25;2.95;;;;;;;15.13;75.37;98041.63;5051215;28;20021;-73
2023/09/20 03:50:23;;;;;;;6.88;3.38;;;;;;;15.02;75.55;98024.59;5034069;28;20041;-73
2023/09/20 03:52:49;;;;;;;5.53;2.63;;;;;;;15.04;75.38;98017.00;5022193;28;20445;-71
2023/09/20 03:55:15;;;;;;;4.05;2.80;;;;;;;15.06;75.63;98014.81;5050150;28;20420;-72
2023/09/20 03:57:40;;;;;;;4.95;3.33;;;;;;;15.14;75.36;98022.38;5019119;28;20017;-73
2023/09/20 04:00:11;;;;;;;7.00;3.40;;;;;;;15.10;75.23;98026.72;5026758;28;20038;-74
2023/09/20 04:02:41;;;;;;;4.75;2.78;;;;;;;14.94;75.31;97998.03;5050724;28;20029;-72
2023/09/20 04:05:11;;;;;;;5.43;2.90;;;;;;;15.00;75.92;98015.94;5051143;28;20037;-71
2023/09/20 04:07:37;;;;;;;3.60;2.85;;;;;;;14.93;75.62;98004.56;5047733;28;20044;-72
2023/09/20 04:10:03;;;;;;;4.18;3.00;;;;;;;15.03;75.90;98026.19;5046854;28;20027;-73
2023/09/20 04:12:28;;;;;;;4.28;3.13;;;;;;;14.96;76.00;98022.19;5051744;28;20041;-73
2023/09/20 04:14:54;;;;;;;5.65;3.40;;;;;;;14.93;75.94;98014.59;5050608;28;20024;-73
2023/09/20 04:17:21;;;;;;;3.55;2.92;;;;;;;15.00;76.00;98021.34;5050770;28;20025;-72
2023/09/20 04:19:46;;;;;;;3.88;3.28;;;;;;;14.80;75.49;97983.44;5050731;28;20032;-75
2023/09/20 04:22:14;;;;;;;4.15;2.90;;;;;;;15.02;75.95;98008.31;5041431;28;20034;-72
2023/09/20 04:24:39;;;;;;;6.47;3.50;;;;;;;15.04;75.62;98006.16;5029566;28;20035;-72
2023/09/20 04:27:05;;;;;;;3.95;3.08;;;;;;;15.00;75.56;97990.72;5030680;28;20504;-74
2023/09/20 04:29:31;;;;;;;5.82;3.28;;;;;;;14.97;75.34;97989.34;5035606;28;20024;-72
2023/09/20 04:31:57;;;;;;;4.78;2.85;;;;;;;15.08;75.22;97995.53;5050457;28;20043;-72
2023/09/20 04:34:24;;;;;;;5.15;3.03;;;;;;;15.14;75.37;98010.72;5023802;28;20029;-71
2023/09/20 04:36:52;;;;;;;5.90;3.17;;;;;;;15.16;75.43;98014.78;5029134;28;20021;-73
2023/09/20 04:39:19;;;;;;;3.08;2.70;;;;;;;15.17;75.25;98016.38;5044177;28;20480;-72
2023/09/20 04:41:45;;;;;;;4.80;3.05;;;;;;;15.18;75.03;98007.16;5044522;28;20036;-72
2023/09/20 04:44:13;;;;;;;3.67;3.28;;;;;;;14.97;75.18;97973.09;5028618;28;20029;-73
2023/09/20 04:46:40;;;;;;;4.57;3.03;;;;;;;15.13;75.06;98004.47;5023654;28;20029;-72
2023/09/20 04:49:06;;;;;;;3.58;2.92;;;;;;;15.10;74.90;97994.16;5032417;28;20040;-72
2023/09/20 04:51:32;;;;;;;4.55;3.13;;;;;;;15.13;74.85;98004.47;5048710;28;20071;-72
2023/09/20 04:53:58;;;;;;;5.35;3.00;;;;;;;15.06;74.85;97995.81;5029335;28;20104;-73
2023/09/20 04:56:24;;;;;;;4.05;2.90;;;;;;;15.13;74.72;98018.03;5020814;28;20120;-72
2023/09/20 04:58:50;;;;;;;4.00;3.10;;;;;;;14.99;75.07;98003.44;5044300;28;20125;-73
2023/09/20 05:01:15;;;;;;;4.32;3.30;;;;;;;14.80;75.11;97969.88;5046752;28;20116;-74
2023/09/20 05:03:41;;;;;;;4.38;3.20;;;;;;;15.02;74.92;98002.91;5026895;28;20033;-73
2023/09/20 05:06:07;;;;;;;4.95;3.08;;;;;;;15.01;75.18;98012.13;5024450;28;20035;-74
2023/09/20 05:08:33;;;;;;;3.33;2.97;;;;;;;14.99;75.36;98010.75;5046414;28;20026;-73
2023/09/20 05:10:58;;;;;;;5.85;3.25;;;;;;;14.85;75.51;98010.56;5037408;28;20048;-73
2023/09/20 05:13:24;;;;;;;5.95;3.20;;;;;;;14.75;75.58;97997.00;5046420;28;20025;-74
2023/09/20 05:15:52;;;;;;;4.68;3.10;;;;;;;14.86;75.44;98025.75;5029921;28;20034;-74
2023/09/20 05:18:18;;;;;;;4.40;4.00;;;;;;;14.87;75.39;98021.94;5027548;28;20022;-74
2023/09/20 05:20:47;;;;;;;16.80;14.00;;;;;;;14.80;75.61;98009.75;5057284;28;20062;-74
2023/09/20 05:23:13;;;;;;;15.23;13.43;;;;;;;14.87;75.83;98027.34;5045965;28;20062;-73
2023/09/20 05:25:39;;;;;;;42.35;36.85;;;;;;;14.84;75.63;98021.69;5007801;28;20167;-73
2023/09/20 05:28:05;;;;;;;109.70;89.75;;;;;;;14.85;76.11;98020.56;5061741;28;20021;-74
2023/09/20 05:30:31;;;;;;;96.13;74.57;;;;;;;14.82;75.67;98008.38;5021292;28;20064;-74
2023/09/20 05:32:59;;;;;;;153.77;108.53;;;;;;;14.86;75.56;98009.47;5013637;28;20507;-73
2023/09/20 05:35:25;;;;;;;102.43;64.32;;;;;;;14.69;75.85;97962.06;5039705;28;20053;-73
2023/09/20 05:37:51;;;;;;;95.47;58.67;;;;;;;14.90;75.78;97994.25;5044400;28;20465;-72
2023/09/20 05:40:21;;;;;;;60.50;39.22;;;;;;;14.97;75.76;98002.09;5038212;28;20029;-73
2023/09/20 05:42:47;;;;;;;8.95;6.55;;;;;;;15.02;75.49;97999.38;5035575;28;20115;-72
2023/09/20 05:45:13;;;;;;;10.23;4.93;;;;;;;15.15;75.33;98018.56;5029536;28;20037;-73
2023/09/20 05:47:40;;;;;;;5.25;3.55;;;;;;;15.17;75.51;98010.97;5018360;28;20034;-73
2023/09/20 05:50:10;;;;;;;6.03;3.10;;;;;;;15.20;75.25;98015.03;5054156;28;20075;-73
2023/09/20 05:52:36;;;;;;;3.45;2.90;;;;;;;15.28;75.18;98010.91;5028399;28;20095;-73
2023/09/20 05:55:08;;;;;;;4.25;3.50;;;;;;;15.31;74.54;98004.94;5022044;28;20025;-74
2023/09/20 05:57:34;;;;;;;6.65;2.88;;;;;;;15.42;74.63;98017.38;5035034;28;20040;-72
2023/09/20 06:00:09;;;;;;;3.20;2.90;;;;;;;15.48;74.42;98022.50;5049567;28;20783;-74
2023/09/20 06:02:37;;;;;;;4.53;3.10;;;;;;;15.53;74.25;98022.47;5021641;28;20118;-73
2023/09/20 06:05:02;;;;;;;3.40;2.80;;;;;;;15.47;74.32;98006.50;5045647;28;20041;-72
2023/09/20 06:07:27;;;;;;;4.13;2.90;;;;;;;15.46;74.12;98018.44;5037726;28;20481;-73
2023/09/20 06:09:53;;;;;;;3.25;2.85;;;;;;;15.53;73.65;98011.63;5064280;28;20061;-72
2023/09/20 06:12:19;;;;;;;3.38;2.80;;;;;;;15.61;73.72;98015.66;5038204;28;20029;-73
2023/09/20 06:14:45;;;;;;;4.18;3.05;;;;;;;15.69;73.43;98034.06;5047546;28;20682;-73
2023/09/20 06:17:10;;;;;;;4.25;2.90;;;;;;;15.75;73.31;98032.94;5045964;28;20033;-73
2023/09/20 06:19:37;;;;;;;4.55;2.90;;;;;;;15.80;73.46;98041.03;5045896;28;20124;-73
2023/09/20 06:22:03;;;;;;;5.22;2.70;;;;;;;15.88;72.93;98026.88;5021504;28;20044;-74
2023/09/20 06:24:28;;;;;;;4.53;3.00;;;;;;;15.97;72.71;98024.34;5045550;28;20021;-72
2023/09/20 06:26:54;;;;;;;3.90;2.85;;;;;;;16.15;72.51;98032.63;5030357;28;20451;-73
2023/09/20 06:29:19;;;;;;;3.65;3.00;;;;;;;16.20;72.19;98035.31;5058722;28;20028;-72
2023/09/20 06:31:45;;;;;;;5.07;2.85;;;;;;;16.25;71.93;98037.19;5041162;28;20049;-72
2023/09/20 06:34:14;;;;;;;3.63;2.92;;;;;;;16.32;71.67;98029.50;5027045;28;20025;-72
2023/09/20 06:36:40;;;;;;;3.13;2.70;;;;;;;16.37;70.90;98024.84;5047060;28;20040;-74
2023/09/20 06:39:08;;;;;;;5.38;2.60;;;;;;;16.44;70.96;98028.03;5049445;28;20492;-72
2023/09/20 06:41:33;;;;;;;3.40;2.80;;;;;;;16.56;70.46;98025.78;5022451;28;20033;-72
2023/09/20 06:43:59;;;;;;;3.00;2.67;;;;;;;16.64;70.52;98028.97;5015223;28;20036;-72
2023/09/20 06:46:25;;;;;;;4.20;2.80;;;;;;;16.62;70.25;98014.88;5049530;28;20125;-72
2023/09/20 06:48:50;;;;;;;4.32;2.50;;;;;;;16.81;70.05;98029.34;5036373;28;20021;-73
2023/09/20 06:51:17;;;;;;;4.85;2.67;;;;;;;16.69;69.77;98020.75;5032050;28;20116;-72
2023/09/20 06:53:43;;;;;;;4.25;3.10;;;;;;;16.87;69.68;98033.63;5028711;28;20048;-73
2023/09/20 06:56:08;;;;;;;4.43;3.10;;;;;;;16.96;69.42;98037.34;5041106;28;20044;-73
2023/09/20 06:58:34;;;;;;;4.60;2.50;;;;;;;17.01;69.14;98018.25;5036305;28;20017;-72
2023/09/20 07:00:59;;;;;;;5.88;2.70;;;;;;;17.14;68.91;98033.84;5043390;28;20124;-72
2023/09/20 07:03:24;;;;;;;3.80;2.60;;;;;;;17.22;69.07;98030.50;5050210;28;20025;-72
2023/09/20 07:05:51;;;;;;;5.32;2.53;;;;;;;17.26;68.94;98020.66;5032342;28;20041;-72
2023/09/20 07:08:19;;;;;;;5.45;2.90;;;;;;;17.38;68.24;98045.53;5048372;28;20021;-72
2023/09/20 07:10:45;;;;;;;4.18;2.83;;;;;;;17.41;68.21;98034.06;5048515;28;20045;-73
2023/09/20 07:13:11;;;;;;;2.88;2.30;;;;;;;17.47;68.01;98042.97;5034265;28;20025;-71
2023/09/20 07:15:37;;;;;;;3.58;2.72;;;;;;;17.34;67.79;98027.38;5042303;28;20040;-72
2023/09/20 07:18:11;;;;;;;5.90;2.40;;;;;;;17.46;67.81;98049.50;5051339;28;20151;-72
2023/09/20 07:20:39;;;;;;;3.53;2.58;;;;;;;17.53;67.87;98045.38;5047632;28;20037;-73
2023/09/20 07:23:08;;;;;;;4.93;2.50;;;;;;;17.66;67.59;98047.38;5034753;28;20060;-72
2023/09/20 07:25:35;;;;;;;3.95;2.40;;;;;;;17.61;66.82;98033.81;5032019;28;20095;-72
2023/09/20 07:28:03;;;;;;;3.83;2.65;;;;;;;17.68;66.75;98034.28;5032028;28;20029;-73
2023/09/20 07:30:31;;;;;;;2.83;2.30;;;;;;;17.85;66.60;98042.72;5038532;28;20037;-72
2023/09/20 07:32:59;;;;;;;3.22;2.17;;;;;;;17.97;66.40;98033.31;5046503;28;20053;-73
2023/09/20 07:35:36;;;;;;;4.22;2.47;;;;;;;18.10;66.39;98038.81;5026249;28;20127;-73
2023/09/20 07:38:03;;;;;;;2.92;2.30;;;;;;;18.24;66.24;98038.88;5040502;28;20032;-72
2023/09/20 07:40:30;;;;;;;2.80;2.17;;;;;;;18.40;65.84;98040.22;5038032;28;20033;-74
2023/09/20 07:42:59;;;;;;;4.43;2.30;;;;;;;18.47;65.39;98035.25;5018067;28;20069;-73
2023/09/20 07:45:27;;;;;;;3.63;2.90;;;;;;;18.47;65.18;98029.78;5026534;28;20037;-72
2023/09/20 07:47:52;;;;;;;4.43;2.55;;;;;;;18.51;65.49;98033.53;5051000;28;20037;-72
2023/09/20 07:50:18;;;;;;;4.25;2.50;;;;;;;18.53;65.13;98017.66;5048455;28;20389;-73
2023/09/20 07:52:44;;;;;;;4.40;2.50;;;;;;;18.71;65.14;98025.00;5044859;28;20083;-75
2023/09/20 07:55:11;;;;;;;3.95;2.10;;;;;;;18.80;64.38;98011.47;5028182;28;20028;-73
2023/09/20 07:57:38;;;;;;;3.17;2.40;;;;;;;19.02;63.94;98036.94;5040033;28;20112;-73
2023/09/20 08:00:10;;;;;;;2.88;2.33;;;;;;;19.13;63.89;98022.00;5051169;28;20017;-73
2023/09/20 08:02:38;;;;;;;3.67;2.33;;;;;;;19.14;63.50;98012.69;5052196;28;20110;-73
2023/09/20 08:05:05;;;;;;;4.30;2.47;;;;;;;19.27;63.08;98017.34;5039083;28;20033;-73
2023/09/20 08:07:30;;;;;;;3.80;2.38;;;;;;;19.20;62.35;98000.56;5041854;28;20037;-73
2023/09/20 08:09:56;;;;;;;4.10;2.08;;;;;;;19.32;62.39;98008.22;5034082;28;20108;-73
2023/09/20 08:12:21;;;;;;;3.88;2.38;;;;;;;19.43;62.77;97998.72;5042513;28;20403;-72
2023/09/20 08:14:46;;;;;;;3.55;2.30;;;;;;;19.61;62.06;98016.91;5032097;28;20029;-73
2023/09/20 08:19:56;;;;;;;4.38;2.90;;;;;;;19.73;61.89;97986.31;5033792;28;20124;-76
2023/09/20 08:22:21;;;;;;;6.88;2.55;;;;;;;19.86;61.61;98007.34;5042191;28;20112;-73
2023/09/20 09:00:31;;;;;;;5.18;2.10;;;;;;;20.66;60.15;98004.53;5035040;28;20806;-73
2023/09/20 09:03:02;;;;;;;3.47;2.20;;;;;;;20.75;59.69;97986.22;5050704;28;20029;-73
2023/09/20 09:05:29;;;;;;;4.18;2.30;;;;;;;20.86;58.86;98001.25;5030457;28;20076;-73
2023/09/20 09:07:56;;;;;;;6.22;2.10;;;;;;;20.93;59.19;97998.06;5042049;28;20082;-73
2023/09/20 09:10:22;;;;;;;3.47;2.08;;;;;;;20.90;59.44;97976.78;5036805;28;20052;-73
2023/09/20 09:12:47;;;;;;;4.28;2.25;;;;;;;21.08;59.44;97983.94;5020617;28;20029;-75
2023/09/20 09:15:16;;;;;;;4.10;2.13;;;;;;;21.19;59.33;97990.78;5029051;28;20041;-73
2023/09/20 09:17:44;;;;;;;2.72;2.20;;;;;;;21.30;59.34;97983.88;5042996;28;20045;-73
2023/09/20 09:20:11;;;;;;;4.05;2.28;;;;;;;21.41;58.90;97982.44;5043717;28;20041;-74
2023/09/20 09:22:40;;;;;;;3.20;2.05;;;;;;;21.33;58.03;97964.06;5029552;28;20041;-73
2023/09/20 09:25:18;;;;;;;7.30;2.30;;;;;;;21.56;58.29;97983.91;5029907;28;20112;-72
2023/09/20 09:27:43;;;;;;;5.00;2.03;;;;;;;21.54;57.53;97975.22;5043516;28;20041;-74
2023/09/20 09:30:12;;;;;;;4.55;2.38;;;;;;;21.54;57.28;97970.50;5042640;28;20113;-72
2023/09/20 09:32:38;;;;;;;3.10;1.67;;;;;;;21.64;57.35;97956.50;5013130;28;20099;-73
2023/09/20 09:35:05;;;;;;;4.65;2.10;;;;;;;21.79;56.80;97961.53;5021713;28;20025;-73
2023/09/20 09:37:32;;;;;;;3.58;2.30;;;;;;;21.72;56.80;97966.69;5031191;28;20038;-73
2023/09/20 09:40:05;;;;;;;4.30;2.20;;;;;;;21.69;56.60;97945.38;5044743;28;20047;-73
2023/09/20 09:42:31;;;;;;;3.60;2.38;;;;;;;21.79;56.55;97957.97;5041688;28;20128;-73
2023/09/20 09:44:58;;;;;;;5.18;2.38;;;;;;;21.88;55.83;97961.53;5022818;28;20480;-72
2023/09/20 09:47:24;;;;;;;3.17;1.85;;;;;;;21.89;55.09;97961.22;5033198;28;20056;-74
2023/09/20 09:49:51;;;;;;;3.45;1.75;;;;;;;21.52;54.96;97900.72;5029729;28;20469;-75
2023/09/20 09:52:17;;;;;;;4.78;1.98;;;;;;;21.80;55.55;97935.69;5047435;28;20075;-75
2023/09/20 09:54:46;;;;;;;5.15;2.03;;;;;;;22.02;55.74;97941.06;5045874;28;20033;-75
2023/09/20 09:57:12;;;;;;;3.80;2.00;;;;;;;22.26;54.80;97946.03;5046725;28;20033;-75
2023/09/20 09:59:39;;;;;;;3.65;2.00;;;;;;;22.36;53.54;97950.31;5004043;28;20025;-74
2023/09/20 10:02:14;;;;;;;5.25;2.10;;;;;;;22.39;52.42;97941.44;5030498;28;20071;-75
2023/09/20 10:04:40;;;;;;;5.85;2.45;;;;;;;22.30;53.75;97910.50;5045660;28;20043;-74
2023/09/20 10:07:14;;;;;;;4.10;2.08;;;;;;;22.54;53.10;97938.97;5044651;28;20025;-75
2023/09/20 10:09:42;;;;;;;5.90;2.50;;;;;;;22.61;53.20;97939.31;5037651;28;20040;-74
2023/09/20 10:12:08;;;;;;;4.38;2.22;;;;;;;22.67;52.83;97938.00;5053245;28;20087;-75
2023/09/20 10:14:36;;;;;;;2.42;1.75;;;;;;;22.63;52.90;97926.06;5052814;28;20037;-75
2023/09/20 10:17:08;;;;;;;4.35;1.98;;;;;;;22.71;52.81;97921.66;5033754;28;20032;-75
2023/09/20 10:19:39;;;;;;;2.67;2.10;;;;;;;22.87;51.19;97919.97;5049116;28;20408;-75
2023/09/20 10:22:08;;;;;;;4.28;1.90;;;;;;;22.82;50.75;97922.94;5033163;28;20582;-74
2023/09/20 10:25:02;;;;;;;5.85;2.22;;;;;;;22.81;51.13;97912.25;5048033;28;20105;-75
2023/09/20 10:27:30;;;;;;;5.70;2.38;;;;;;;22.80;51.21;97916.16;5048959;28;20057;-75
2023/09/20 10:30:00;;;;;;;5.07;2.10;;;;;;;22.90;51.25;97908.34;5032885;28;20029;-75
2023/09/20 10:32:48;;;;;;;3.33;2.00;;;;;;;23.13;51.33;97895.09;5043882;28;20048;-74
2023/09/20 10:35:19;;;;;;;3.60;2.10;;;;;;;23.23;50.19;97912.03;5052938;28;20056;-75
2023/09/20 10:38:20;;;;;;;4.15;2.20;;;;;;;23.32;50.65;97881.72;5054105;28;20033;-75
2023/09/20 10:40:45;;;;;;;2.22;1.60;;;;;;;23.70;49.63;97895.38;5054020;28;20584;-75
2023/09/20 10:43:13;;;;;;;2.97;2.17;;;;;;;23.83;49.63;97880.50;5053569;28;20103;-75
2023/09/20 10:45:39;;;;;;;6.43;2.10;;;;;;;24.09;49.57;97897.59;5035636;28;20037;-75
2023/09/20 10:48:12;;;;;;;2.55;1.80;;;;;;;24.24;48.74;97888.72;5052372;28;20104;-75
2023/09/20 10:50:45;;;;;;;2.92;1.83;;;;;;;24.31;49.15;97894.47;5051674;28;20037;-75
2023/09/20 10:53:12;;;;;;;3.55;2.05;;;;;;;24.29;47.28;97876.69;5048667;28;20088;-75
2023/09/20 10:55:38;;;;;;;2.90;2.08;;;;;;;24.58;47.13;97896.56;5049782;28;20021;-75
2023/09/20 10:58:04;;;;;;;2.58;1.88;;;;;;;24.80;46.64;97903.63;5053985;28;20060;-75
2023/09/20 11:00:34;;;;;;;4.20;2.15;;;;;;;24.49;47.56;97887.59;5052502;28;20583;-75
2023/09/20 11:03:03;;;;;;;5.07;1.85;;;;;;;24.28;47.84;97892.38;5048678;28;20516;-75
2023/09/20 11:05:28;;;;;;;4.60;2.22;;;;;;;24.13;47.81;97882.03;5032552;28;20048;-75
2023/09/20 11:07:55;;;;;;;3.67;2.10;;;;;;;23.96;48.84;97890.44;5040212;28;20537;-75
2023/09/20 11:10:20;;;;;;;3.10;2.03;;;;;;;23.82;49.22;97874.22;5047214;28;20075;-76
2023/09/20 11:12:46;;;;;;;3.92;2.38;;;;;;;24.11;49.17;97889.81;5023527;28;20030;-75
2023/09/20 11:15:15;;;;;;;2.97;2.13;;;;;;;24.08;48.78;97863.00;5028878;28;20473;-76
2023/09/20 11:17:41;;;;;;;4.40;1.98;;;;;;;24.27;49.02;97868.75;5024166;28;20517;-77
2023/09/20 11:20:07;;;;;;;3.30;1.95;;;;;;;24.21;48.15;97872.88;5050564;28;20108;-76
2023/09/20 11:22:33;;;;;;;2.55;2.00;;;;;;;24.17;47.29;97869.19;5047712;28;20128;-74
2023/09/20 11:25:00;;;;;;;4.45;1.88;;;;;;;24.38;47.67;97872.69;5030607;28;20116;-76
2023/09/20 11:27:26;;;;;;;3.00;1.83;;;;;;;24.41;46.62;97874.72;5044972;28;20055;-74
2023/09/20 11:29:52;;;;;;;3.30;1.73;;;;;;;24.48;46.65;97861.22;5048596;28;20440;-77
2023/09/20 11:32:21;;;;;;;2.65;1.73;;;;;;;24.71;45.98;97867.09;5027198;28;20055;-74
2023/09/20 11:34:50;;;;;;;3.10;2.00;;;;;;;24.83;45.21;97847.84;5052810;28;20352;-76
2023/09/20 11:37:17;;;;;;;3.20;1.73;;;;;;;24.98;45.50;97862.84;5048511;28;20120;-76
2023/09/20 11:39:46;;;;;;;2.50;1.95;;;;;;;24.95;45.20;97858.84;5052842;28;20038;-77
2023/09/20 11:42:23;;;;;;;2.53;1.75;;;;;;;24.59;44.93;97834.84;5051648;28;20041;-75
2023/09/20 11:45:03;;;;;;;3.65;1.70;;;;;;;24.78;44.99;97850.03;5034959;28;20557;-76
2023/09/20 11:47:31;;;;;;;3.13;1.85;;;;;;;25.93;43.41;97847.19;5048139;28;20121;-75
2023/09/20 11:49:57;;;;;;;2.60;1.70;;;;;;;27.69;40.22;97845.19;5038588;28;20048;-75
2023/09/20 11:52:22;;;;;;;3.40;2.33;;;;;;;29.37;37.06;97841.00;5047685;28;20033;-75
2023/09/20 11:54:48;;;;;;;7.43;6.65;;;;;;;30.77;35.86;97829.06;5038804;28;20388;-75
2023/09/20 11:57:16;;;;;;;3.50;2.25;;;;;;;32.10;33.11;97817.09;5048494;28;20487;-73
2023/09/20 11:59:43;;;;;;;3.42;2.10;;;;;;;32.62;31.37;97819.19;5023594;28;20021;-73
2023/09/20 12:02:09;;;;;;;2.90;1.88;;;;;;;33.13;31.15;97841.09;5029628;28;20508;-74
2023/09/20 12:04:35;;;;;;;4.05;2.10;;;;;;;33.03;29.84;97818.75;5025788;28;20593;-75
2023/09/20 12:07:01;;;;;;;2.55;1.98;;;;;;;33.26;29.37;97805.13;5031863;28;20041;-73
2023/09/20 12:09:27;;;;;;;2.33;2.03;;;;;;;33.65;29.01;97817.03;5043427;28;20021;-72
2023/09/20 12:11:52;;;;;;;2.55;2.10;;;;;;;34.17;28.94;97814.38;5052126;28;20044;-72